createdAt,value
2022-11-15T00:00:05.791Z,95771.22
2022-11-15T00:02:54.412Z,95763.88
2022-11-15T00:05:41.732Z,95759.19
2022-11-15T00:08:31.936Z,95767.53
2022-11-15T00:11:19.388Z,95762.19
2022-11-15T00:14:06.453Z,95751.25
2022-11-15T00:16:54.832Z,95760.84
2022-11-15T00:19:42.188Z,95758.97
2022-11-15T00:22:34.345Z,95750.53
2022-11-15T00:25:21.509Z,95760.38
2022-11-15T00:28:08.844Z,95756.88
2022-11-15T00:30:56.259Z,95753.91
2022-11-15T00:33:47.000Z,95760.09
2022-11-15T00:36:35.745Z,95755.81
2022-11-15T00:39:23.059Z,95754.94
2022-11-15T00:42:10.441Z,95744.00
2022-11-15T00:44:57.688Z,95736.19
2022-11-15T00:47:47.504Z,95740.66
2022-11-15T00:50:36.455Z,95740.34
2022-11-15T00:53:23.728Z,95736.88
2022-11-15T00:56:10.774Z,95731.56
2022-11-15T00:58:58.087Z,95724.34
2022-11-15T01:01:45.042Z,95724.25
2022-11-15T01:04:32.647Z,95721.34
2022-11-15T01:07:21.552Z,95720.53
2022-11-15T01:10:09.715Z,95720.31
2022-11-15T01:12:57.037Z,95710.97
2022-11-15T01:15:44.175Z,95714.75
2022-11-15T01:18:35.707Z,95710.72
2022-11-15T01:21:23.403Z,95714.84
2022-11-15T01:24:12.618Z,95713.56
2022-11-15T01:26:59.513Z,95705.34
2022-11-15T01:29:47.242Z,95715.22
2022-11-15T01:32:34.688Z,95713.09
2022-11-15T01:35:22.310Z,95707.94
2022-11-15T01:38:09.690Z,95704.97
2022-11-15T01:41:00.951Z,95704.66
2022-11-15T01:43:49.091Z,95700.91
2022-11-15T01:46:37.268Z,95706.50
2022-11-15T01:49:25.713Z,95709.72
2022-11-15T01:52:15.198Z,95704.59
2022-11-15T01:55:04.901Z,95702.66
2022-11-15T01:57:56.503Z,95696.88
2022-11-15T02:00:49.212Z,95702.75
2022-11-15T02:03:39.360Z,95707.41
2022-11-15T02:06:26.735Z,95713.06
2022-11-15T02:09:14.808Z,95705.59
2022-11-15T02:12:04.471Z,95705.41
2022-11-15T02:14:55.265Z,95699.63
2022-11-15T02:17:51.386Z,95697.03
2022-11-15T02:21:03.296Z,95694.13
2022-11-15T02:24:16.539Z,95695.91
2022-11-15T02:27:43.521Z,95690.66
2022-11-15T02:30:36.970Z,95691.31
2022-11-15T02:33:29.946Z,95682.03
2022-11-15T02:36:18.500Z,95682.09
2022-11-15T02:39:09.813Z,95674.75
2022-11-15T02:41:59.267Z,95666.59
2022-11-15T02:44:46.524Z,95665.91
2022-11-15T02:47:36.458Z,95666.47
2022-11-15T02:50:24.121Z,95666.66
2022-11-15T02:53:11.438Z,95664.28
2022-11-15T02:55:58.410Z,95656.66
2022-11-15T02:59:08.083Z,95649.94
2022-11-15T03:02:02.324Z,95648.28
2022-11-15T03:04:54.919Z,95644.59
2022-11-15T03:07:45.107Z,95642.91
2022-11-15T03:10:37.017Z,95639.16
2022-11-15T03:13:27.443Z,95634.28
2022-11-15T03:16:17.824Z,95628.91
2022-11-15T03:19:07.359Z,95629.91
2022-11-15T03:21:55.901Z,95632.13
2022-11-15T03:24:43.441Z,95631.22
2022-11-15T03:27:33.600Z,95629.47
2022-11-15T03:30:21.080Z,95620.97
2022-11-15T03:33:08.300Z,95628.75
2022-11-15T03:35:57.633Z,95622.31
2022-11-15T03:38:46.336Z,95616.59
2022-11-15T03:41:38.217Z,95610.63
2022-11-15T03:44:32.820Z,95615.25
2022-11-15T03:47:21.684Z,95611.28
2022-11-15T03:50:10.454Z,95610.84
2022-11-15T03:52:59.491Z,95607.72
2022-11-15T03:55:48.548Z,95610.50
2022-11-15T03:58:35.802Z,95617.63
2022-11-15T04:01:22.978Z,95610.44
2022-11-15T04:04:10.453Z,95621.34
2022-11-15T04:06:58.046Z,95618.09
2022-11-15T04:09:59.042Z,95610.38
2022-11-15T04:12:51.844Z,95620.66
2022-11-15T04:15:38.963Z,95617.03
2022-11-15T04:18:43.419Z,95613.50
2022-11-15T04:21:49.460Z,95614.16
2022-11-15T04:24:37.028Z,95621.00
2022-11-15T04:27:24.017Z,95617.69
2022-11-15T04:30:13.591Z,95618.03
2022-11-15T04:33:01.192Z,95613.97
2022-11-15T04:36:08.593Z,95611.44
2022-11-15T04:38:55.924Z,95611.34
2022-11-15T04:41:43.036Z,95609.44
2022-11-15T04:44:33.803Z,95609.13
2022-11-15T04:47:23.282Z,95605.31
2022-11-15T04:50:13.889Z,95601.78
2022-11-15T04:53:03.804Z,95598.75
2022-11-15T04:55:52.555Z,95600.50
2022-11-15T04:58:42.404Z,95599.59
2022-11-15T05:01:29.602Z,95611.50
2022-11-15T05:04:24.912Z,95599.78
2022-11-15T05:07:12.458Z,95597.63
2022-11-15T05:09:59.564Z,95604.13
2022-11-15T05:12:50.092Z,95602.38
2022-11-15T05:15:37.932Z,95595.31
2022-11-15T05:18:25.083Z,95595.41
2022-11-15T05:21:15.018Z,95598.06
2022-11-15T05:24:02.412Z,95596.75
2022-11-15T05:26:50.050Z,95587.56
2022-11-15T05:29:40.487Z,95585.72
2022-11-15T05:32:27.930Z,95590.00
2022-11-15T05:35:16.183Z,95587.56
2022-11-15T05:38:04.799Z,95586.94
2022-11-15T05:40:51.981Z,95584.59
2022-11-15T05:43:39.630Z,95580.09
2022-11-15T05:46:26.777Z,95588.63
2022-11-15T05:49:15.392Z,95584.94
2022-11-15T05:52:02.523Z,95575.09
2022-11-15T05:54:51.416Z,95577.13
2022-11-15T05:57:40.985Z,95574.84
2022-11-15T06:00:28.234Z,95573.19
2022-11-15T06:03:17.908Z,95575.25
2022-11-15T06:06:05.691Z,95569.09
2022-11-15T06:09:01.613Z,95580.03
2022-11-15T06:11:51.245Z,95583.22
2022-11-15T06:14:46.148Z,95576.63
2022-11-15T06:17:36.848Z,95585.63
2022-11-15T06:20:24.789Z,95576.63
2022-11-15T06:23:12.155Z,95576.00
2022-11-15T06:26:00.695Z,95579.47
2022-11-15T06:28:58.041Z,95581.22
2022-11-15T06:31:46.857Z,95582.78
2022-11-15T06:34:34.412Z,95578.53
2022-11-15T06:37:24.978Z,95581.22
2022-11-15T06:40:15.503Z,95579.38
2022-11-15T06:43:03.246Z,95584.13
2022-11-15T06:45:53.885Z,95588.16
2022-11-15T06:48:41.704Z,95581.31
2022-11-15T06:51:30.248Z,95586.44
2022-11-15T06:54:19.878Z,95585.47
2022-11-15T06:57:07.148Z,95587.72
2022-11-15T06:59:54.436Z,95587.56
2022-11-15T07:02:43.139Z,95591.63
2022-11-15T07:05:30.387Z,95583.19
2022-11-15T07:08:17.868Z,95583.31
2022-11-15T07:11:10.481Z,95590.84
2022-11-15T07:13:59.561Z,95592.81
2022-11-15T07:16:47.648Z,95592.00
2022-11-15T07:19:36.510Z,95591.56
2022-11-15T07:22:24.035Z,95597.72
2022-11-15T07:25:11.513Z,95585.56
2022-11-15T07:28:00.872Z,95582.72
2022-11-15T07:30:50.799Z,95580.09
2022-11-15T07:33:38.418Z,95576.75
2022-11-15T07:36:29.346Z,95581.34
2022-11-15T07:39:19.378Z,95572.91
2022-11-15T07:42:35.672Z,95579.09
2022-11-15T07:45:23.077Z,95581.81
2022-11-15T07:48:10.101Z,95576.81
2022-11-15T07:50:57.528Z,95575.56
2022-11-15T07:53:46.309Z,95574.06
2022-11-15T07:56:39.606Z,95577.28
2022-11-15T07:59:27.321Z,95576.50
2022-11-15T08:02:14.858Z,95586.47
2022-11-15T08:05:01.901Z,95577.97
2022-11-15T08:07:51.800Z,95580.44
2022-11-15T08:10:41.952Z,95575.97
2022-11-15T08:13:31.290Z,95572.00
2022-11-15T08:16:22.494Z,95563.19
2022-11-15T08:19:10.272Z,95567.56
2022-11-15T08:21:57.725Z,95563.34
2022-11-15T08:24:44.875Z,95559.38
2022-11-15T08:27:36.955Z,95568.47
2022-11-15T08:30:24.331Z,95563.41
2022-11-15T08:33:13.346Z,95558.88
2022-11-15T08:36:01.759Z,95565.28
2022-11-15T08:38:49.116Z,95561.78
2022-11-15T08:41:37.858Z,95562.88
2022-11-15T08:44:26.712Z,95557.25
2022-11-15T08:47:20.632Z,95558.00
2022-11-15T08:50:08.618Z,95560.34
2022-11-15T08:52:58.976Z,95546.69
2022-11-15T08:55:46.719Z,95541.88
2022-11-15T08:58:34.147Z,95541.28
2022-11-15T09:01:23.578Z,95547.34
2022-11-15T09:04:10.796Z,95545.41
2022-11-15T09:06:58.497Z,95528.44
2022-11-15T09:09:45.854Z,95531.03
2022-11-15T09:12:33.295Z,95530.38
2022-11-15T09:15:20.908Z,95528.19
2022-11-15T09:18:10.000Z,95526.22
2022-11-15T09:20:59.060Z,95523.44
2022-11-15T09:23:49.732Z,95522.75
2022-11-15T09:26:42.834Z,95528.59
2022-11-15T09:29:29.832Z,95518.03
2022-11-15T09:32:17.068Z,95517.63
2022-11-15T09:35:06.204Z,95530.94
2022-11-15T09:37:56.323Z,95523.63
2022-11-15T09:40:44.016Z,95528.03
2022-11-15T09:43:35.924Z,95521.44
2022-11-15T09:46:26.470Z,95530.97
2022-11-15T09:49:18.540Z,95525.69
2022-11-15T09:52:14.846Z,95524.47
2022-11-15T09:54:54.691Z,95518.88
2022-11-15T09:57:26.601Z,95515.47
2022-11-15T10:00:44.687Z,95509.28
2022-11-15T10:03:13.987Z,95505.66
2022-11-15T10:05:45.567Z,95499.31
2022-11-15T10:08:25.176Z,95498.63
2022-11-15T10:11:22.620Z,95498.56
2022-11-15T10:13:50.649Z,95506.34
2022-11-15T10:16:33.169Z,95500.06
2022-11-15T10:19:05.861Z,95501.25
2022-11-15T10:21:42.227Z,95502.38
2022-11-15T10:24:14.913Z,95500.91
2022-11-15T10:26:50.987Z,95499.22
2022-11-15T10:29:26.759Z,95493.84
2022-11-15T10:31:59.497Z,95486.16
2022-11-15T10:34:28.722Z,95487.97
2022-11-15T10:36:58.051Z,95482.47
2022-11-15T10:39:28.470Z,95487.56
2022-11-15T10:41:57.248Z,95480.97
2022-11-15T10:44:28.098Z,95478.78
2022-11-15T10:47:39.026Z,95469.84
2022-11-15T10:50:10.122Z,95479.59
2022-11-15T10:52:39.572Z,95467.41
2022-11-15T10:55:27.390Z,95465.31
2022-11-15T10:58:08.761Z,95456.06
2022-11-15T11:00:39.807Z,95451.56
2022-11-15T11:03:09.336Z,95449.53
2022-11-15T11:05:42.512Z,95452.59
2022-11-15T11:08:29.163Z,95453.47
2022-11-15T11:11:35.181Z,95439.66
2022-11-15T11:14:13.841Z,95445.00
2022-11-15T11:16:58.157Z,95438.88
2022-11-15T11:19:58.546Z,95438.78
2022-11-15T11:22:33.682Z,95433.59
2022-11-15T11:25:28.945Z,95427.94
2022-11-15T11:28:24.968Z,95424.75
2022-11-15T11:31:09.388Z,95419.00
2022-11-15T11:33:42.631Z,95419.06
2022-11-15T11:36:28.772Z,95405.94
2022-11-15T11:39:03.269Z,95409.44
2022-11-15T11:41:42.778Z,95405.53
2022-11-15T11:44:25.799Z,95400.44
2022-11-15T11:47:00.600Z,95402.19
2022-11-15T11:49:39.667Z,95390.97
2022-11-15T11:52:22.241Z,95389.00
2022-11-15T11:54:59.552Z,95385.66
2022-11-15T11:57:40.747Z,95385.81
2022-11-15T12:00:39.380Z,95383.53
2022-11-15T12:03:20.308Z,95380.00
2022-11-15T12:05:57.749Z,95380.13
2022-11-15T12:08:34.408Z,95373.09
2022-11-15T12:11:26.444Z,95374.63
2022-11-15T12:14:06.513Z,95372.66
2022-11-15T12:16:48.304Z,95364.88
2022-11-15T12:19:23.258Z,95377.38
2022-11-15T12:21:58.073Z,95365.16
2022-11-15T12:24:35.039Z,95368.56
2022-11-15T12:27:05.914Z,95366.44
2022-11-15T12:29:51.330Z,95360.91
2022-11-15T12:32:39.335Z,95366.63
2022-11-15T12:35:23.716Z,95361.19
2022-11-15T12:38:06.381Z,95355.38
2022-11-15T12:41:02.916Z,95353.44
2022-11-15T12:43:44.004Z,95350.06
2022-11-15T12:46:25.984Z,95347.47
2022-11-15T12:49:09.793Z,95350.38
2022-11-15T12:52:23.068Z,95347.31
2022-11-15T12:55:08.906Z,95341.72
2022-11-15T12:57:46.868Z,95346.50
2022-11-15T13:00:48.173Z,95348.81
2022-11-15T13:03:22.237Z,95350.19
2022-11-15T13:06:11.089Z,95346.50
2022-11-15T13:08:48.463Z,95341.53
2022-11-15T13:11:56.348Z,95347.84
2022-11-15T13:14:49.907Z,95347.63
2022-11-15T13:20:30.847Z,95340.88
2022-11-15T13:23:18.774Z,95335.38
2022-11-15T13:26:00.501Z,95338.03
2022-11-15T13:28:36.933Z,95330.03
2022-11-15T13:31:22.575Z,95332.03
2022-11-15T13:33:56.583Z,95336.28
2022-11-15T13:36:27.261Z,95330.97
2022-11-15T13:39:36.189Z,95327.81
2022-11-15T13:42:19.470Z,95334.31
2022-11-15T13:45:04.343Z,95327.38
2022-11-15T13:47:45.463Z,95323.09
2022-11-15T13:50:17.435Z,95325.13
2022-11-15T13:52:49.679Z,95317.50
2022-11-15T13:55:21.418Z,95315.09
2022-11-15T13:57:57.361Z,95325.97
2022-11-15T14:00:46.642Z,95316.72
2022-11-15T14:03:26.422Z,95312.28
2022-11-15T14:06:18.321Z,95309.50
2022-11-15T14:09:09.992Z,95302.38
2022-11-15T14:11:51.875Z,95304.34
2022-11-15T14:14:23.575Z,95304.09
2022-11-15T14:17:09.404Z,95297.75
2022-11-15T14:19:50.978Z,95287.69
2022-11-15T14:22:23.165Z,95284.81
2022-11-15T14:25:34.062Z,95283.78
2022-11-15T14:28:18.908Z,95280.91
2022-11-15T14:30:53.264Z,95274.78
2022-11-15T14:33:25.260Z,95272.97
2022-11-15T14:35:55.853Z,95272.25
2022-11-15T14:38:33.289Z,95272.06
2022-11-15T14:41:03.667Z,95269.19
2022-11-15T14:43:41.325Z,95269.25
2022-11-15T14:46:11.041Z,95263.69
2022-11-15T14:48:48.072Z,95260.22
2022-11-15T14:51:20.030Z,95260.53
2022-11-15T14:53:58.082Z,95252.28
2022-11-15T14:56:29.804Z,95245.38
2022-11-15T14:59:28.045Z,95239.28
2022-11-15T15:02:00.377Z,95237.44
2022-11-15T15:04:32.536Z,95236.09
2022-11-15T15:07:05.622Z,95234.59
2022-11-15T15:09:51.766Z,95238.34
2022-11-15T15:12:31.058Z,95231.16
2022-11-15T15:15:11.717Z,95231.16
2022-11-15T15:17:43.719Z,95227.75
2022-11-15T15:20:23.116Z,95218.41
2022-11-15T15:22:54.205Z,95215.25
2022-11-15T15:25:41.337Z,95210.97
2022-11-15T15:28:10.997Z,95207.78
2022-11-15T15:30:51.843Z,95208.31
2022-11-15T15:36:14.048Z,95200.88
2022-11-15T15:38:48.820Z,95201.69
2022-11-15T15:41:24.806Z,95195.78
2022-11-15T15:43:57.873Z,95191.75
2022-11-15T15:46:39.536Z,95192.56
2022-11-15T15:49:16.437Z,95185.59
2022-11-15T15:51:48.300Z,95183.13
2022-11-15T15:54:18.506Z,95186.06
2022-11-15T15:56:52.151Z,95175.34
2022-11-15T15:59:26.288Z,95174.75
2022-11-15T16:02:07.717Z,95176.88
2022-11-15T16:04:36.992Z,95176.50
2022-11-15T16:07:27.302Z,95181.06
2022-11-15T16:10:18.887Z,95178.19
2022-11-15T16:12:58.603Z,95184.59
2022-11-15T16:15:36.714Z,95191.38
2022-11-15T16:18:11.944Z,95186.38
2022-11-15T16:20:47.080Z,95200.03
2022-11-15T16:23:16.869Z,95205.63
2022-11-15T16:25:50.474Z,95199.28
2022-11-15T16:28:21.800Z,95205.44
2022-11-15T16:30:56.431Z,95207.56
2022-11-15T16:33:45.077Z,95202.53
2022-11-15T16:36:28.463Z,95199.66
2022-11-15T16:39:05.108Z,95191.94
2022-11-15T16:41:34.460Z,95193.28
2022-11-15T16:44:16.194Z,95182.91
2022-11-15T16:47:06.626Z,95177.31
2022-11-15T16:49:50.199Z,95187.72
2022-11-15T16:52:25.864Z,95187.72
2022-11-15T16:54:56.360Z,95180.28
2022-11-15T16:57:28.409Z,95185.59
2022-11-15T16:59:59.497Z,95191.16
2022-11-15T17:02:38.115Z,95188.22
2022-11-15T17:05:20.871Z,95187.41
2022-11-15T17:08:12.778Z,95187.13
2022-11-15T17:10:51.378Z,95185.22
2022-11-15T17:13:24.840Z,95183.88
2022-11-15T17:16:07.842Z,95189.16
2022-11-15T17:18:37.196Z,95184.88
2022-11-15T17:21:16.321Z,95185.13
2022-11-15T17:23:54.373Z,95184.03
2022-11-15T17:26:40.338Z,95179.75
2022-11-15T17:29:14.169Z,95173.63
2022-11-15T17:31:45.701Z,95168.03
2022-11-15T17:34:18.667Z,95173.84
2022-11-15T17:36:51.484Z,95167.19
2022-11-15T17:39:23.984Z,95161.31
2022-11-15T17:41:53.307Z,95166.94
2022-11-15T17:44:25.689Z,95157.41
2022-11-15T17:46:55.560Z,95157.19
2022-11-15T17:49:24.887Z,95157.28
2022-11-15T17:52:00.285Z,95148.00
2022-11-15T17:54:36.223Z,95150.69
2022-11-15T17:57:08.404Z,95151.50
2022-11-15T17:59:37.604Z,95148.56
2022-11-15T18:02:06.897Z,95144.59
2022-11-15T18:04:44.639Z,95137.13
2022-11-15T18:07:17.057Z,95140.06
2022-11-15T18:09:51.475Z,95142.72
2022-11-15T18:12:22.584Z,95136.34
2022-11-15T18:15:04.117Z,95141.94
2022-11-15T18:17:34.151Z,95140.34
2022-11-15T18:20:03.348Z,95142.22
2022-11-15T18:22:33.825Z,95139.00
2022-11-15T18:25:03.198Z,95137.41
2022-11-15T18:27:35.169Z,95139.53
2022-11-15T18:30:04.275Z,95140.31
2022-11-15T18:32:34.932Z,95132.84
2022-11-15T18:35:06.991Z,95128.88
2022-11-15T18:37:38.946Z,95119.00
2022-11-15T18:40:20.917Z,95126.47
2022-11-15T18:42:59.305Z,95117.44
2022-11-15T18:45:36.480Z,95124.38
2022-11-15T18:48:12.561Z,95115.53
2022-11-15T18:50:47.988Z,95104.88
2022-11-15T18:53:20.745Z,95107.53
2022-11-15T18:55:58.211Z,95105.69
2022-11-15T18:58:33.635Z,95102.53
2022-11-15T19:01:11.995Z,95104.94
2022-11-15T19:03:42.353Z,95101.47
2022-11-15T19:06:23.360Z,95103.88
2022-11-15T19:08:56.692Z,95095.38
2022-11-15T19:11:29.403Z,95104.94
2022-11-15T19:13:59.712Z,95096.69
2022-11-15T19:16:46.805Z,95093.50
2022-11-15T19:19:27.803Z,95086.28
2022-11-15T19:22:00.931Z,95086.03
2022-11-15T19:24:37.580Z,95085.72
2022-11-15T19:27:07.023Z,95077.72
2022-11-15T19:29:49.539Z,95083.28
2022-11-15T19:32:34.235Z,95074.53
2022-11-15T19:35:27.801Z,95077.94
2022-11-15T19:37:57.938Z,95074.75
2022-11-15T19:40:35.084Z,95073.94
2022-11-15T19:43:05.350Z,95075.75
2022-11-15T19:45:41.147Z,95075.97
2022-11-15T19:48:21.813Z,95073.06
2022-11-15T19:50:55.357Z,95073.06
2022-11-15T19:53:33.450Z,95057.34
2022-11-15T19:56:07.458Z,95065.84
2022-11-15T19:58:38.688Z,95064.28
2022-11-15T20:01:16.421Z,95061.34
2022-11-15T20:03:48.004Z,95059.94
2022-11-15T20:06:17.682Z,95053.25
2022-11-15T20:08:47.639Z,95057.25
2022-11-15T20:11:19.750Z,95058.84
2022-11-15T20:13:49.200Z,95063.38
2022-11-15T20:16:26.549Z,95050.19
2022-11-15T20:19:04.436Z,95040.91
2022-11-15T20:21:36.678Z,95049.13
2022-11-15T20:24:07.185Z,95041.69
2022-11-15T20:26:48.486Z,95045.41
2022-11-15T20:29:17.625Z,95036.19
2022-11-15T20:31:49.037Z,95030.88
2022-11-15T20:34:18.001Z,95039.34
2022-11-15T20:36:47.098Z,95033.38
2022-11-15T20:39:16.805Z,95027.25
2022-11-15T20:41:47.216Z,95026.66
2022-11-15T20:44:18.619Z,95028.00
2022-11-15T20:46:48.634Z,95023.75
2022-11-15T20:49:17.744Z,95021.66
2022-11-15T20:51:50.597Z,95016.63
2022-11-15T20:54:19.725Z,95012.63
2022-11-15T20:57:08.413Z,95008.94
2022-11-15T20:59:43.847Z,95005.72
2022-11-15T21:02:15.007Z,94999.31
2022-11-15T21:04:44.747Z,94995.88
2022-11-15T21:07:19.796Z,94997.44
2022-11-15T21:10:06.102Z,94989.47
2022-11-15T21:12:36.853Z,94990.25
2022-11-15T21:15:06.925Z,94984.66
2022-11-15T21:17:36.672Z,94977.50
2022-11-15T21:20:10.480Z,94979.41
2022-11-15T21:22:39.817Z,94964.88
2022-11-15T21:25:09.715Z,94969.44
2022-11-15T21:27:42.968Z,94973.44
2022-11-15T21:30:19.658Z,94967.09
2022-11-15T21:33:05.433Z,94967.69
2022-11-15T21:35:39.990Z,94962.66
2022-11-15T21:38:09.315Z,94969.81
2022-11-15T21:40:38.419Z,94963.44
2022-11-15T21:43:09.987Z,94962.63
2022-11-15T21:45:41.661Z,94959.44
2022-11-15T21:48:10.659Z,94957.56
2022-11-15T21:50:39.653Z,94953.31
2022-11-15T21:53:09.240Z,94955.16
2022-11-15T21:55:41.040Z,94946.94
2022-11-15T21:58:11.549Z,94937.38
2022-11-15T22:01:02.303Z,94938.97
2022-11-15T22:03:32.535Z,94928.09
2022-11-15T22:06:03.430Z,94929.97
2022-11-15T22:08:32.974Z,94928.91
2022-11-15T22:11:02.981Z,94924.13
2022-11-15T22:13:33.642Z,94927.56
2022-11-15T22:16:02.825Z,94926.50
2022-11-15T22:18:33.451Z,94918.00
2022-11-15T22:21:03.953Z,94916.66
2022-11-15T22:23:34.471Z,94905.75
2022-11-15T22:26:05.428Z,94900.47
2022-11-15T22:28:36.596Z,94902.31
2022-11-15T22:31:06.141Z,94903.13
2022-11-15T22:33:36.055Z,94893.03
2022-11-15T22:36:06.071Z,94889.03
2022-11-15T22:38:37.152Z,94888.53
2022-11-15T22:41:06.649Z,94876.56
2022-11-15T22:43:39.548Z,94878.41
2022-11-15T22:46:08.761Z,94870.97
2022-11-15T22:48:39.456Z,94866.19
2022-11-15T22:51:12.015Z,94865.94
2022-11-15T22:53:41.222Z,94861.41
2022-11-15T22:56:17.629Z,94863.53
2022-11-15T22:58:51.141Z,94862.19
2022-11-15T23:01:22.533Z,94857.16
2022-11-15T23:03:52.129Z,94853.97
2022-11-15T23:06:21.414Z,94854.00
2022-11-15T23:08:51.379Z,94851.06
2022-11-15T23:11:37.667Z,94846.00
2022-11-15T23:14:11.065Z,94846.00
2022-11-15T23:16:40.884Z,94845.50
2022-11-15T23:19:10.939Z,94839.91
2022-11-15T23:21:58.017Z,94837.78
2022-11-15T23:24:27.123Z,94841.78
2022-11-15T23:26:58.499Z,94837.00
2022-11-15T23:29:32.385Z,94830.59
2022-11-15T23:32:18.415Z,94835.13
2022-11-15T23:34:47.730Z,94828.50
2022-11-15T23:37:17.169Z,94817.09
2022-11-15T23:39:46.397Z,94818.94
2022-11-15T23:42:20.361Z,94804.06
2022-11-15T23:44:51.341Z,94801.41
2022-11-15T23:47:20.695Z,94807.47
2022-11-15T23:49:49.889Z,94806.16
2022-11-15T23:52:18.954Z,94804.81
2022-11-15T23:54:48.181Z,94806.41
2022-11-15T23:57:17.827Z,94795.00
2022-11-15T23:59:47.032Z,94799.25
